sensor_id;sensor_type;location;lat;lon;timestamp;P1;durP1;ratioP1;P2;durP2;ratioP2
6551;SDS011;3309;48.708;9.290;2022-12-08T00:01:17;0.80;;;0.80;;
6551;SDS011;3309;48.708;9.290;2022-12-08T00:03:43;0.80;;;0.80;;
6551;SDS011;3309;48.708;9.290;2022-12-08T00:06:21;0.80;;;0.80;;
6551;SDS011;3309;48.708;9.290;2022-12-08T00:09:13;0.80;;;0.80;;
6551;SDS011;3309;48.708;9.290;2022-12-08T00:11:46;0.80;;;0.80;;
6551;SDS011;3309;48.708;9.290;2022-12-08T00:14:12;0.70;;;0.70;;
6551;SDS011;3309;48.708;9.290;2022-12-08T00:16:38;0.80;;;0.80;;
6551;SDS011;3309;48.708;9.290;2022-12-08T00:19:04;1.00;;;1.00;;
6551;SDS011;3309;48.708;9.290;2022-12-08T00:21:30;0.90;;;0.90;;
6551;SDS011;3309;48.708;9.290;2022-12-08T00:23:56;0.87;;;0.87;;
6551;SDS011;3309;48.708;9.290;2022-12-08T00:26:22;0.90;;;0.90;;
6551;SDS011;3309;48.708;9.290;2022-12-08T00:28:48;0.90;;;0.90;;
6551;SDS011;3309;48.708;9.290;2022-12-08T00:31:14;1.00;;;1.00;;
6551;SDS011;3309;48.708;9.290;2022-12-08T00:33:40;0.93;;;0.93;;
6551;SDS011;3309;48.708;9.290;2022-12-08T00:36:06;0.90;;;0.90;;
6551;SDS011;3309;48.708;9.290;2022-12-08T00:38:33;0.90;;;0.90;;
6551;SDS011;3309;48.708;9.290;2022-12-08T00:40:59;0.90;;;0.90;;
6551;SDS011;3309;48.708;9.290;2022-12-08T00:43:25;0.80;;;0.80;;
6551;SDS011;3309;48.708;9.290;2022-12-08T00:45:51;0.80;;;0.80;;
6551;SDS011;3309;48.708;9.290;2022-12-08T00:48:17;0.80;;;0.80;;
6551;SDS011;3309;48.708;9.290;2022-12-08T00:50:43;0.90;;;0.90;;
6551;SDS011;3309;48.708;9.290;2022-12-08T00:53:09;0.87;;;0.87;;
6551;SDS011;3309;48.708;9.290;2022-12-08T00:55:34;0.90;;;0.90;;
6551;SDS011;3309;48.708;9.290;2022-12-08T00:58:00;0.80;;;0.80;;
6551;SDS011;3309;48.708;9.290;2022-12-08T01:00:26;1.10;;;1.10;;
6551;SDS011;3309;48.708;9.290;2022-12-08T01:02:52;0.87;;;0.87;;
6551;SDS011;3309;48.708;9.290;2022-12-08T01:05:18;0.90;;;0.90;;
6551;SDS011;3309;48.708;9.290;2022-12-08T01:07:44;0.90;;;0.90;;
6551;SDS011;3309;48.708;9.290;2022-12-08T01:10:12;0.90;;;0.90;;
6551;SDS011;3309;48.708;9.290;2022-12-08T01:12:38;0.90;;;0.90;;
6551;SDS011;3309;48.708;9.290;2022-12-08T01:15:04;1.00;;;1.00;;
6551;SDS011;3309;48.708;9.290;2022-12-08T01:17:31;0.90;;;0.90;;
6551;SDS011;3309;48.708;9.290;2022-12-08T01:19:57;0.97;;;0.97;;
6551;SDS011;3309;48.708;9.290;2022-12-08T01:22:23;0.90;;;0.90;;
6551;SDS011;3309;48.708;9.290;2022-12-08T01:24:49;1.00;;;1.00;;
6551;SDS011;3309;48.708;9.290;2022-12-08T01:27:15;0.90;;;0.90;;
6551;SDS011;3309;48.708;9.290;2022-12-08T01:29:41;0.80;;;0.80;;
6551;SDS011;3309;48.708;9.290;2022-12-08T01:32:07;0.70;;;0.70;;
6551;SDS011;3309;48.708;9.290;2022-12-08T01:34:33;1.00;;;1.00;;
6551;SDS011;3309;48.708;9.290;2022-12-08T01:36:59;0.90;;;0.90;;
6551;SDS011;3309;48.708;9.290;2022-12-08T01:39:25;0.90;;;0.90;;
6551;SDS011;3309;48.708;9.290;2022-12-08T01:41:51;1.00;;;1.00;;
6551;SDS011;3309;48.708;9.290;2022-12-08T01:46:44;0.90;;;0.90;;
6551;SDS011;3309;48.708;9.290;2022-12-08T01:51:42;0.90;;;0.90;;
6551;SDS011;3309;48.708;9.290;2022-12-08T01:54:11;0.90;;;0.90;;
6551;SDS011;3309;48.708;9.290;2022-12-08T01:56:40;0.93;;;0.93;;
6551;SDS011;3309;48.708;9.290;2022-12-08T01:59:07;0.80;;;0.80;;
6551;SDS011;3309;48.708;9.290;2022-12-08T02:01:34;0.80;;;0.80;;
6551;SDS011;3309;48.708;9.290;2022-12-08T02:04:01;0.80;;;0.80;;
6551;SDS011;3309;48.708;9.290;2022-12-08T02:06:29;0.80;;;0.80;;
6551;SDS011;3309;48.708;9.290;2022-12-08T02:08:56;0.90;;;0.90;;
6551;SDS011;3309;48.708;9.290;2022-12-08T02:11:23;0.90;;;0.90;;
6551;SDS011;3309;48.708;9.290;2022-12-08T02:13:49;0.90;;;0.90;;
6551;SDS011;3309;48.708;9.290;2022-12-08T02:16:20;0.83;;;0.83;;
6551;SDS011;3309;48.708;9.290;2022-12-08T02:18:52;0.90;;;0.90;;
6551;SDS011;3309;48.708;9.290;2022-12-08T02:41:54;0.90;;;0.90;;
6551;SDS011;3309;48.708;9.290;2022-12-08T02:44:23;0.90;;;0.90;;
6551;SDS011;3309;48.708;9.290;2022-12-08T02:46:53;0.80;;;0.80;;
6551;SDS011;3309;48.708;9.290;2022-12-08T02:49:20;0.90;;;0.90;;
6551;SDS011;3309;48.708;9.290;2022-12-08T02:51:46;0.93;;;0.93;;
6551;SDS011;3309;48.708;9.290;2022-12-08T02:54:12;1.00;;;1.00;;
6551;SDS011;3309;48.708;9.290;2022-12-08T02:56:43;0.90;;;0.90;;
6551;SDS011;3309;48.708;9.290;2022-12-08T03:04:44;0.90;;;0.90;;
6551;SDS011;3309;48.708;9.290;2022-12-08T03:07:22;0.80;;;0.80;;
6551;SDS011;3309;48.708;9.290;2022-12-08T03:09:50;0.90;;;0.90;;
6551;SDS011;3309;48.708;9.290;2022-12-08T03:12:27;0.90;;;0.90;;
6551;SDS011;3309;48.708;9.290;2022-12-08T03:14:55;0.90;;;0.90;;
6551;SDS011;3309;48.708;9.290;2022-12-08T03:17:24;1.00;;;1.00;;
6551;SDS011;3309;48.708;9.290;2022-12-08T03:19:50;0.80;;;0.80;;
6551;SDS011;3309;48.708;9.290;2022-12-08T03:22:18;0.90;;;0.90;;
6551;SDS011;3309;48.708;9.290;2022-12-08T03:24:46;0.90;;;0.90;;
6551;SDS011;3309;48.708;9.290;2022-12-08T03:27:13;0.90;;;0.90;;
6551;SDS011;3309;48.708;9.290;2022-12-08T03:29:43;0.80;;;0.80;;
6551;SDS011;3309;48.708;9.290;2022-12-08T03:32:15;0.90;;;0.90;;
6551;SDS011;3309;48.708;9.290;2022-12-08T03:34:43;1.00;;;1.00;;
6551;SDS011;3309;48.708;9.290;2022-12-08T03:37:11;0.80;;;0.80;;
6551;SDS011;3309;48.708;9.290;2022-12-08T03:39:37;0.80;;;0.80;;
6551;SDS011;3309;48.708;9.290;2022-12-08T03:42:03;0.80;;;0.80;;
6551;SDS011;3309;48.708;9.290;2022-12-08T03:44:29;1.00;;;1.00;;
6551;SDS011;3309;48.708;9.290;2022-12-08T03:46:55;0.80;;;0.80;;
6551;SDS011;3309;48.708;9.290;2022-12-08T03:49:21;0.90;;;0.90;;
6551;SDS011;3309;48.708;9.290;2022-12-08T03:51:47;1.00;;;1.00;;
6551;SDS011;3309;48.708;9.290;2022-12-08T03:54:13;0.90;;;0.90;;
6551;SDS011;3309;48.708;9.290;2022-12-08T03:56:39;1.00;;;1.00;;
6551;SDS011;3309;48.708;9.290;2022-12-08T03:59:06;0.80;;;0.80;;
6551;SDS011;3309;48.708;9.290;2022-12-08T04:01:32;0.80;;;0.80;;
6551;SDS011;3309;48.708;9.290;2022-12-08T04:03:58;0.80;;;0.80;;
6551;SDS011;3309;48.708;9.290;2022-12-08T04:06:24;0.93;;;0.93;;
6551;SDS011;3309;48.708;9.290;2022-12-08T04:08:50;1.00;;;1.00;;
6551;SDS011;3309;48.708;9.290;2022-12-08T04:11:17;0.90;;;0.90;;
6551;SDS011;3309;48.708;9.290;2022-12-08T04:13:43;0.83;;;0.83;;
6551;SDS011;3309;48.708;9.290;2022-12-08T04:16:20;0.80;;;0.80;;
6551;SDS011;3309;48.708;9.290;2022-12-08T04:18:46;0.90;;;0.90;;
6551;SDS011;3309;48.708;9.290;2022-12-08T04:21:12;0.80;;;0.80;;
6551;SDS011;3309;48.708;9.290;2022-12-08T04:23:38;0.90;;;0.90;;
6551;SDS011;3309;48.708;9.290;2022-12-08T04:26:04;0.80;;;0.80;;
6551;SDS011;3309;48.708;9.290;2022-12-08T04:28:30;0.90;;;0.90;;
6551;SDS011;3309;48.708;9.290;2022-12-08T04:30:56;0.97;;;0.97;;
6551;SDS011;3309;48.708;9.290;2022-12-08T04:33:22;0.87;;;0.87;;
6551;SDS011;3309;48.708;9.290;2022-12-08T04:35:48;0.80;;;0.80;;
6551;SDS011;3309;48.708;9.290;2022-12-08T04:38:15;0.90;;;0.90;;
6551;SDS011;3309;48.708;9.290;2022-12-08T04:40:41;0.90;;;0.90;;
6551;SDS011;3309;48.708;9.290;2022-12-08T04:43:07;0.80;;;0.80;;
6551;SDS011;3309;48.708;9.290;2022-12-08T04:45:33;1.00;;;1.00;;
6551;SDS011;3309;48.708;9.290;2022-12-08T04:47:59;0.83;;;0.83;;
6551;SDS011;3309;48.708;9.290;2022-12-08T04:50:26;0.90;;;0.90;;
6551;SDS011;3309;48.708;9.290;2022-12-08T04:52:52;0.90;;;0.90;;
6551;SDS011;3309;48.708;9.290;2022-12-08T04:55:18;0.87;;;0.87;;
6551;SDS011;3309;48.708;9.290;2022-12-08T04:57:44;0.97;;;0.97;;
6551;SDS011;3309;48.708;9.290;2022-12-08T05:00:10;0.90;;;0.90;;
6551;SDS011;3309;48.708;9.290;2022-12-08T05:02:37;0.80;;;0.80;;
6551;SDS011;3309;48.708;9.290;2022-12-08T05:05:03;0.90;;;0.90;;
6551;SDS011;3309;48.708;9.290;2022-12-08T05:07:29;0.97;;;0.97;;
6551;SDS011;3309;48.708;9.290;2022-12-08T05:09:55;0.90;;;0.90;;
6551;SDS011;3309;48.708;9.290;2022-12-08T05:12:21;0.90;;;0.90;;
6551;SDS011;3309;48.708;9.290;2022-12-08T05:14:47;0.90;;;0.90;;
6551;SDS011;3309;48.708;9.290;2022-12-08T05:17:17;0.90;;;0.90;;
6551;SDS011;3309;48.708;9.290;2022-12-08T05:19:43;0.83;;;0.83;;
6551;SDS011;3309;48.708;9.290;2022-12-08T05:22:09;0.90;;;0.90;;
6551;SDS011;3309;48.708;9.290;2022-12-08T05:24:35;0.90;;;0.90;;
6551;SDS011;3309;48.708;9.290;2022-12-08T05:27:02;0.90;;;0.90;;
6551;SDS011;3309;48.708;9.290;2022-12-08T05:29:28;0.90;;;0.90;;
6551;SDS011;3309;48.708;9.290;2022-12-08T05:31:54;0.80;;;0.80;;
6551;SDS011;3309;48.708;9.290;2022-12-08T05:34:20;0.90;;;0.90;;
6551;SDS011;3309;48.708;9.290;2022-12-08T05:36:46;0.80;;;0.80;;
6551;SDS011;3309;48.708;9.290;2022-12-08T05:39:12;0.90;;;0.90;;
6551;SDS011;3309;48.708;9.290;2022-12-08T05:41:38;0.90;;;0.90;;
6551;SDS011;3309;48.708;9.290;2022-12-08T05:44:05;0.87;;;0.87;;
6551;SDS011;3309;48.708;9.290;2022-12-08T05:46:31;0.80;;;0.80;;
6551;SDS011;3309;48.708;9.290;2022-12-08T05:48:58;0.90;;;0.90;;
6551;SDS011;3309;48.708;9.290;2022-12-08T05:51:24;0.90;;;0.90;;
6551;SDS011;3309;48.708;9.290;2022-12-08T05:53:50;1.00;;;1.00;;
6551;SDS011;3309;48.708;9.290;2022-12-08T05:56:17;0.90;;;0.90;;
6551;SDS011;3309;48.708;9.290;2022-12-08T05:58:43;0.90;;;0.90;;
6551;SDS011;3309;48.708;9.290;2022-12-08T06:01:22;0.90;;;0.90;;
6551;SDS011;3309;48.708;9.290;2022-12-08T06:03:48;0.90;;;0.90;;
6551;SDS011;3309;48.708;9.290;2022-12-08T06:06:14;0.80;;;0.80;;
6551;SDS011;3309;48.708;9.290;2022-12-08T06:08:40;0.80;;;0.80;;
6551;SDS011;3309;48.708;9.290;2022-12-08T06:11:07;0.80;;;0.80;;
6551;SDS011;3309;48.708;9.290;2022-12-08T06:13:33;0.90;;;0.90;;
6551;SDS011;3309;48.708;9.290;2022-12-08T06:16:05;0.90;;;0.90;;
6551;SDS011;3309;48.708;9.290;2022-12-08T06:18:31;0.80;;;0.80;;
6551;SDS011;3309;48.708;9.290;2022-12-08T06:21:01;0.90;;;0.90;;
6551;SDS011;3309;48.708;9.290;2022-12-08T06:23:27;0.90;;;0.90;;
6551;SDS011;3309;48.708;9.290;2022-12-08T06:25:53;0.90;;;0.90;;
6551;SDS011;3309;48.708;9.290;2022-12-08T06:28:19;1.00;;;1.00;;
6551;SDS011;3309;48.708;9.290;2022-12-08T06:30:45;0.90;;;0.90;;
6551;SDS011;3309;48.708;9.290;2022-12-08T06:33:11;0.90;;;0.90;;
6551;SDS011;3309;48.708;9.290;2022-12-08T06:35:37;0.90;;;0.90;;
6551;SDS011;3309;48.708;9.290;2022-12-08T06:38:03;1.00;;;1.00;;
6551;SDS011;3309;48.708;9.290;2022-12-08T06:40:29;0.90;;;0.90;;
6551;SDS011;3309;48.708;9.290;2022-12-08T06:42:55;1.00;;;1.00;;
6551;SDS011;3309;48.708;9.290;2022-12-08T06:45:21;0.90;;;0.90;;
6551;SDS011;3309;48.708;9.290;2022-12-08T06:47:47;0.97;;;0.97;;
6551;SDS011;3309;48.708;9.290;2022-12-08T06:50:13;0.87;;;0.87;;
6551;SDS011;3309;48.708;9.290;2022-12-08T06:52:39;0.90;;;0.90;;
6551;SDS011;3309;48.708;9.290;2022-12-08T06:55:06;0.93;;;0.93;;
6551;SDS011;3309;48.708;9.290;2022-12-08T06:57:32;0.80;;;0.80;;
6551;SDS011;3309;48.708;9.290;2022-12-08T06:59:59;1.00;;;1.00;;
6551;SDS011;3309;48.708;9.290;2022-12-08T07:02:24;1.00;;;1.00;;
6551;SDS011;3309;48.708;9.290;2022-12-08T07:04:50;1.00;;;1.00;;
6551;SDS011;3309;48.708;9.290;2022-12-08T07:07:16;0.80;;;0.80;;
6551;SDS011;3309;48.708;9.290;2022-12-08T07:09:42;0.97;;;0.97;;
6551;SDS011;3309;48.708;9.290;2022-12-08T07:12:08;1.00;;;1.00;;
6551;SDS011;3309;48.708;9.290;2022-12-08T07:14:34;0.90;;;0.90;;
6551;SDS011;3309;48.708;9.290;2022-12-08T07:17:00;1.00;;;1.00;;
6551;SDS011;3309;48.708;9.290;2022-12-08T07:19:26;1.00;;;1.00;;
6551;SDS011;3309;48.708;9.290;2022-12-08T07:21:52;0.80;;;0.80;;
6551;SDS011;3309;48.708;9.290;2022-12-08T07:24:18;0.90;;;0.90;;
6551;SDS011;3309;48.708;9.290;2022-12-08T07:26:44;0.90;;;0.90;;
6551;SDS011;3309;48.708;9.290;2022-12-08T07:29:10;1.00;;;1.00;;
6551;SDS011;3309;48.708;9.290;2022-12-08T07:31:36;1.00;;;1.00;;
6551;SDS011;3309;48.708;9.290;2022-12-08T07:34:02;1.00;;;1.00;;
6551;SDS011;3309;48.708;9.290;2022-12-08T07:36:28;1.03;;;1.03;;
6551;SDS011;3309;48.708;9.290;2022-12-08T07:38:54;0.90;;;0.90;;
6551;SDS011;3309;48.708;9.290;2022-12-08T07:41:22;0.80;;;0.80;;
6551;SDS011;3309;48.708;9.290;2022-12-08T07:43:48;0.90;;;0.90;;
6551;SDS011;3309;48.708;9.290;2022-12-08T07:46:15;0.90;;;0.90;;
6551;SDS011;3309;48.708;9.290;2022-12-08T07:48:41;0.73;;;0.73;;
6551;SDS011;3309;48.708;9.290;2022-12-08T07:51:07;0.80;;;0.80;;
6551;SDS011;3309;48.708;9.290;2022-12-08T07:53:33;0.70;;;0.70;;
6551;SDS011;3309;48.708;9.290;2022-12-08T07:55:59;0.70;;;0.70;;
6551;SDS011;3309;48.708;9.290;2022-12-08T07:58:25;0.70;;;0.70;;
6551;SDS011;3309;48.708;9.290;2022-12-08T08:00:51;0.60;;;0.60;;
6551;SDS011;3309;48.708;9.290;2022-12-08T08:03:18;0.50;;;0.50;;
6551;SDS011;3309;48.708;9.290;2022-12-08T08:05:44;0.40;;;0.40;;
6551;SDS011;3309;48.708;9.290;2022-12-08T08:08:13;0.50;;;0.50;;
6551;SDS011;3309;48.708;9.290;2022-12-08T08:10:39;0.40;;;0.40;;
6551;SDS011;3309;48.708;9.290;2022-12-08T08:13:05;0.50;;;0.50;;
6551;SDS011;3309;48.708;9.290;2022-12-08T08:15:31;0.50;;;0.50;;
6551;SDS011;3309;48.708;9.290;2022-12-08T08:17:57;0.40;;;0.40;;
6551;SDS011;3309;48.708;9.290;2022-12-08T08:20:23;0.40;;;0.40;;
6551;SDS011;3309;48.708;9.290;2022-12-08T08:22:49;0.50;;;0.50;;
6551;SDS011;3309;48.708;9.290;2022-12-08T08:25:16;0.50;;;0.50;;
6551;SDS011;3309;48.708;9.290;2022-12-08T08:27:42;0.50;;;0.50;;
6551;SDS011;3309;48.708;9.290;2022-12-08T08:30:09;0.50;;;0.50;;
6551;SDS011;3309;48.708;9.290;2022-12-08T08:32:35;0.50;;;0.50;;
6551;SDS011;3309;48.708;9.290;2022-12-08T08:35:02;0.43;;;0.43;;
6551;SDS011;3309;48.708;9.290;2022-12-08T08:37:28;0.57;;;0.57;;
6551;SDS011;3309;48.708;9.290;2022-12-08T08:39:54;0.40;;;0.40;;
6551;SDS011;3309;48.708;9.290;2022-12-08T08:42:20;0.50;;;0.50;;
6551;SDS011;3309;48.708;9.290;2022-12-08T08:44:46;0.40;;;0.40;;
6551;SDS011;3309;48.708;9.290;2022-12-08T08:47:12;0.40;;;0.40;;
6551;SDS011;3309;48.708;9.290;2022-12-08T08:49:38;0.50;;;0.50;;
6551;SDS011;3309;48.708;9.290;2022-12-08T08:52:05;0.60;;;0.60;;
6551;SDS011;3309;48.708;9.290;2022-12-08T08:54:31;0.40;;;0.40;;
6551;SDS011;3309;48.708;9.290;2022-12-08T08:56:57;0.40;;;0.40;;
6551;SDS011;3309;48.708;9.290;2022-12-08T08:59:24;0.40;;;0.40;;
6551;SDS011;3309;48.708;9.290;2022-12-08T09:01:50;0.40;;;0.40;;
6551;SDS011;3309;48.708;9.290;2022-12-08T09:04:16;0.43;;;0.43;;
6551;SDS011;3309;48.708;9.290;2022-12-08T09:06:42;0.50;;;0.50;;
6551;SDS011;3309;48.708;9.290;2022-12-08T09:09:09;0.60;;;0.60;;
6551;SDS011;3309;48.708;9.290;2022-12-08T09:11:35;0.33;;;0.33;;
6551;SDS011;3309;48.708;9.290;2022-12-08T09:14:01;0.30;;;0.30;;
6551;SDS011;3309;48.708;9.290;2022-12-08T09:16:27;0.40;;;0.40;;
6551;SDS011;3309;48.708;9.290;2022-12-08T09:18:53;0.30;;;0.30;;
6551;SDS011;3309;48.708;9.290;2022-12-08T09:21:24;0.40;;;0.40;;
6551;SDS011;3309;48.708;9.290;2022-12-08T09:23:52;0.40;;;0.40;;
6551;SDS011;3309;48.708;9.290;2022-12-08T09:26:18;0.30;;;0.30;;
6551;SDS011;3309;48.708;9.290;2022-12-08T09:28:47;0.40;;;0.40;;
6551;SDS011;3309;48.708;9.290;2022-12-08T09:31:14;0.40;;;0.40;;
6551;SDS011;3309;48.708;9.290;2022-12-08T09:33:41;0.40;;;0.40;;
6551;SDS011;3309;48.708;9.290;2022-12-08T09:36:07;0.40;;;0.40;;
6551;SDS011;3309;48.708;9.290;2022-12-08T09:38:33;0.30;;;0.30;;
6551;SDS011;3309;48.708;9.290;2022-12-08T09:41:00;0.40;;;0.40;;
6551;SDS011;3309;48.708;9.290;2022-12-08T09:45:56;0.30;;;0.30;;
6551;SDS011;3309;48.708;9.290;2022-12-08T09:48:24;0.40;;;0.40;;
6551;SDS011;3309;48.708;9.290;2022-12-08T09:50:54;0.47;;;0.47;;
6551;SDS011;3309;48.708;9.290;2022-12-08T09:53:24;0.37;;;0.37;;
6551;SDS011;3309;48.708;9.290;2022-12-08T09:55:52;0.30;;;0.30;;
6551;SDS011;3309;48.708;9.290;2022-12-08T09:58:24;0.40;;;0.40;;
6551;SDS011;3309;48.708;9.290;2022-12-08T10:00:52;0.40;;;0.40;;
6551;SDS011;3309;48.708;9.290;2022-12-08T10:03:18;0.40;;;0.40;;
6551;SDS011;3309;48.708;9.290;2022-12-08T10:08:48;0.50;;;0.50;;
6551;SDS011;3309;48.708;9.290;2022-12-08T10:11:18;0.40;;;0.40;;
6551;SDS011;3309;48.708;9.290;2022-12-08T10:13:50;0.37;;;0.37;;
6551;SDS011;3309;48.708;9.290;2022-12-08T10:18:46;0.40;;;0.40;;
6551;SDS011;3309;48.708;9.290;2022-12-08T10:21:18;0.40;;;0.40;;
6551;SDS011;3309;48.708;9.290;2022-12-08T10:23:47;0.30;;;0.30;;
6551;SDS011;3309;48.708;9.290;2022-12-08T10:26:16;0.40;;;0.40;;
6551;SDS011;3309;48.708;9.290;2022-12-08T10:28:43;0.40;;;0.40;;
6551;SDS011;3309;48.708;9.290;2022-12-08T10:31:16;0.40;;;0.40;;
6551;SDS011;3309;48.708;9.290;2022-12-08T10:33:42;0.50;;;0.50;;
6551;SDS011;3309;48.708;9.290;2022-12-08T10:36:08;0.50;;;0.50;;
6551;SDS011;3309;48.708;9.290;2022-12-08T10:38:35;0.47;;;0.47;;
6551;SDS011;3309;48.708;9.290;2022-12-08T10:43:34;0.50;;;0.50;;
6551;SDS011;3309;48.708;9.290;2022-12-08T10:46:14;0.50;;;0.50;;
6551;SDS011;3309;48.708;9.290;2022-12-08T10:48:47;0.50;;;0.50;;
6551;SDS011;3309;48.708;9.290;2022-12-08T10:51:24;0.50;;;0.50;;
6551;SDS011;3309;48.708;9.290;2022-12-08T10:53:51;0.50;;;0.50;;
6551;SDS011;3309;48.708;9.290;2022-12-08T10:56:17;0.50;;;0.50;;
6551;SDS011;3309;48.708;9.290;2022-12-08T10:58:44;0.50;;;0.50;;
6551;SDS011;3309;48.708;9.290;2022-12-08T11:08:56;0.50;;;0.50;;
6551;SDS011;3309;48.708;9.290;2022-12-08T11:11:36;0.70;;;0.70;;
6551;SDS011;3309;48.708;9.290;2022-12-08T11:14:07;0.80;;;0.80;;
6551;SDS011;3309;48.708;9.290;2022-12-08T11:16:33;0.60;;;0.60;;
6551;SDS011;3309;48.708;9.290;2022-12-08T11:19:00;0.70;;;0.70;;
6551;SDS011;3309;48.708;9.290;2022-12-08T11:21:35;0.70;;;0.70;;
6551;SDS011;3309;48.708;9.290;2022-12-08T11:24:09;0.60;;;0.60;;
6551;SDS011;3309;48.708;9.290;2022-12-08T11:26:44;0.70;;;0.70;;
6551;SDS011;3309;48.708;9.290;2022-12-08T11:29:11;0.80;;;0.80;;
6551;SDS011;3309;48.708;9.290;2022-12-08T11:31:54;0.70;;;0.70;;
6551;SDS011;3309;48.708;9.290;2022-12-08T11:36:53;0.80;;;0.80;;
6551;SDS011;3309;48.708;9.290;2022-12-08T11:39:20;0.50;;;0.50;;
6551;SDS011;3309;48.708;9.290;2022-12-08T11:41:46;0.70;;;0.70;;
6551;SDS011;3309;48.708;9.290;2022-12-08T11:47:15;0.80;;;0.80;;
6551;SDS011;3309;48.708;9.290;2022-12-08T11:49:43;0.77;;;0.77;;
6551;SDS011;3309;48.708;9.290;2022-12-08T11:52:18;0.70;;;0.70;;
6551;SDS011;3309;48.708;9.290;2022-12-08T11:54:49;0.70;;;0.70;;
6551;SDS011;3309;48.708;9.290;2022-12-08T11:57:16;0.70;;;0.70;;
6551;SDS011;3309;48.708;9.290;2022-12-08T11:59:48;0.70;;;0.70;;
6551;SDS011;3309;48.708;9.290;2022-12-08T12:02:15;0.80;;;0.80;;
6551;SDS011;3309;48.708;9.290;2022-12-08T12:04:52;0.80;;;0.80;;
6551;SDS011;3309;48.708;9.290;2022-12-08T12:12:57;0.60;;;0.60;;
6551;SDS011;3309;48.708;9.290;2022-12-08T12:20:55;0.50;;;0.50;;
6551;SDS011;3309;48.708;9.290;2022-12-08T12:23:23;0.47;;;0.47;;
6551;SDS011;3309;48.708;9.290;2022-12-08T12:25:54;0.50;;;0.50;;
6551;SDS011;3309;48.708;9.290;2022-12-08T12:28:22;0.40;;;0.40;;
6551;SDS011;3309;48.708;9.290;2022-12-08T12:33:20;0.50;;;0.50;;
6551;SDS011;3309;48.708;9.290;2022-12-08T12:35:47;0.70;;;0.70;;
6551;SDS011;3309;48.708;9.290;2022-12-08T12:41:07;0.47;;;0.47;;
6551;SDS011;3309;48.708;9.290;2022-12-08T12:43:34;0.60;;;0.60;;
6551;SDS011;3309;48.708;9.290;2022-12-08T12:48:50;0.50;;;0.50;;
6551;SDS011;3309;48.708;9.290;2022-12-08T12:56:55;0.50;;;0.50;;
6551;SDS011;3309;48.708;9.290;2022-12-08T13:01:54;0.60;;;0.60;;
6551;SDS011;3309;48.708;9.290;2022-12-08T13:04:27;0.60;;;0.60;;
6551;SDS011;3309;48.708;9.290;2022-12-08T13:06:54;0.50;;;0.50;;
6551;SDS011;3309;48.708;9.290;2022-12-08T13:09:21;0.60;;;0.60;;
6551;SDS011;3309;48.708;9.290;2022-12-08T13:11:51;0.50;;;0.50;;
6551;SDS011;3309;48.708;9.290;2022-12-08T13:16:53;0.50;;;0.50;;
6551;SDS011;3309;48.708;9.290;2022-12-08T13:19:20;0.40;;;0.40;;
6551;SDS011;3309;48.708;9.290;2022-12-08T13:21:47;0.50;;;0.50;;
6551;SDS011;3309;48.708;9.290;2022-12-08T13:24:14;0.50;;;0.50;;
6551;SDS011;3309;48.708;9.290;2022-12-08T13:26:42;0.60;;;0.60;;
6551;SDS011;3309;48.708;9.290;2022-12-08T13:29:24;0.60;;;0.60;;
6551;SDS011;3309;48.708;9.290;2022-12-08T13:42:05;0.50;;;0.50;;
6551;SDS011;3309;48.708;9.290;2022-12-08T13:44:37;0.60;;;0.60;;
6551;SDS011;3309;48.708;9.290;2022-12-08T13:47:05;0.70;;;0.70;;
6551;SDS011;3309;48.708;9.290;2022-12-08T13:49:36;0.40;;;0.40;;
6551;SDS011;3309;48.708;9.290;2022-12-08T13:52:03;0.63;;;0.63;;
6551;SDS011;3309;48.708;9.290;2022-12-08T13:54:33;0.60;;;0.60;;
6551;SDS011;3309;48.708;9.290;2022-12-08T13:56:59;0.60;;;0.60;;
6551;SDS011;3309;48.708;9.290;2022-12-08T13:59:28;0.67;;;0.67;;
6551;SDS011;3309;48.708;9.290;2022-12-08T14:01:56;0.70;;;0.70;;
6551;SDS011;3309;48.708;9.290;2022-12-08T14:04:22;0.70;;;0.70;;
6551;SDS011;3309;48.708;9.290;2022-12-08T14:06:49;0.70;;;0.70;;
6551;SDS011;3309;48.708;9.290;2022-12-08T14:09:17;0.70;;;0.70;;
6551;SDS011;3309;48.708;9.290;2022-12-08T14:11:49;0.60;;;0.60;;
6551;SDS011;3309;48.708;9.290;2022-12-08T14:14:18;0.73;;;0.73;;
6551;SDS011;3309;48.708;9.290;2022-12-08T14:16:51;0.70;;;0.70;;
6551;SDS011;3309;48.708;9.290;2022-12-08T14:19:19;0.60;;;0.60;;
6551;SDS011;3309;48.708;9.290;2022-12-08T14:21:56;0.70;;;0.70;;
6551;SDS011;3309;48.708;9.290;2022-12-08T14:24:23;0.70;;;0.70;;
6551;SDS011;3309;48.708;9.290;2022-12-08T14:26:50;0.70;;;0.70;;
6551;SDS011;3309;48.708;9.290;2022-12-08T14:29:25;0.80;;;0.80;;
6551;SDS011;3309;48.708;9.290;2022-12-08T14:31:53;0.70;;;0.70;;
6551;SDS011;3309;48.708;9.290;2022-12-08T14:34:19;0.70;;;0.70;;
6551;SDS011;3309;48.708;9.290;2022-12-08T14:36:45;0.83;;;0.83;;
6551;SDS011;3309;48.708;9.290;2022-12-08T14:39:11;0.80;;;0.80;;
6551;SDS011;3309;48.708;9.290;2022-12-08T14:41:37;0.87;;;0.87;;
6551;SDS011;3309;48.708;9.290;2022-12-08T14:44:03;0.80;;;0.80;;
6551;SDS011;3309;48.708;9.290;2022-12-08T14:46:38;0.80;;;0.80;;
6551;SDS011;3309;48.708;9.290;2022-12-08T14:49:31;0.80;;;0.80;;
6551;SDS011;3309;48.708;9.290;2022-12-08T14:51:58;0.80;;;0.80;;
6551;SDS011;3309;48.708;9.290;2022-12-08T14:54:25;0.80;;;0.80;;
6551;SDS011;3309;48.708;9.290;2022-12-08T14:56:54;0.83;;;0.83;;
6551;SDS011;3309;48.708;9.290;2022-12-08T14:59:21;0.80;;;0.80;;
6551;SDS011;3309;48.708;9.290;2022-12-08T15:01:50;0.90;;;0.90;;
6551;SDS011;3309;48.708;9.290;2022-12-08T15:04:18;0.90;;;0.90;;
6551;SDS011;3309;48.708;9.290;2022-12-08T15:09:31;0.80;;;0.80;;
6551;SDS011;3309;48.708;9.290;2022-12-08T15:12:30;0.87;;;0.87;;
6551;SDS011;3309;48.708;9.290;2022-12-08T15:22:54;0.90;;;0.90;;
6551;SDS011;3309;48.708;9.290;2022-12-08T15:25:21;0.70;;;0.70;;
6551;SDS011;3309;48.708;9.290;2022-12-08T15:27:48;0.80;;;0.80;;
6551;SDS011;3309;48.708;9.290;2022-12-08T15:30:16;0.80;;;0.80;;
6551;SDS011;3309;48.708;9.290;2022-12-08T15:32:42;0.80;;;0.80;;
6551;SDS011;3309;48.708;9.290;2022-12-08T15:35:12;1.00;;;1.00;;
6551;SDS011;3309;48.708;9.290;2022-12-08T15:37:38;0.90;;;0.90;;
6551;SDS011;3309;48.708;9.290;2022-12-08T15:40:05;0.80;;;0.80;;
6551;SDS011;3309;48.708;9.290;2022-12-08T15:42:31;0.83;;;0.83;;
6551;SDS011;3309;48.708;9.290;2022-12-08T15:44:57;0.70;;;0.70;;
6551;SDS011;3309;48.708;9.290;2022-12-08T15:47:23;0.77;;;0.77;;
6551;SDS011;3309;48.708;9.290;2022-12-08T15:49:50;0.70;;;0.70;;
6551;SDS011;3309;48.708;9.290;2022-12-08T15:52:20;0.70;;;0.70;;
6551;SDS011;3309;48.708;9.290;2022-12-08T15:54:47;0.77;;;0.77;;
6551;SDS011;3309;48.708;9.290;2022-12-08T15:57:18;0.70;;;0.70;;
6551;SDS011;3309;48.708;9.290;2022-12-08T15:59:45;0.80;;;0.80;;
6551;SDS011;3309;48.708;9.290;2022-12-08T16:02:11;0.80;;;0.80;;
6551;SDS011;3309;48.708;9.290;2022-12-08T16:04:37;0.80;;;0.80;;
6551;SDS011;3309;48.708;9.290;2022-12-08T16:07:04;0.77;;;0.77;;
6551;SDS011;3309;48.708;9.290;2022-12-08T16:09:31;0.80;;;0.80;;
6551;SDS011;3309;48.708;9.290;2022-12-08T16:11:57;0.90;;;0.90;;
6551;SDS011;3309;48.708;9.290;2022-12-08T16:14:42;0.90;;;0.90;;
6551;SDS011;3309;48.708;9.290;2022-12-08T16:17:15;0.80;;;0.80;;
6551;SDS011;3309;48.708;9.290;2022-12-08T16:19:41;0.80;;;0.80;;
6551;SDS011;3309;48.708;9.290;2022-12-08T16:22:15;0.80;;;0.80;;
6551;SDS011;3309;48.708;9.290;2022-12-08T16:24:41;0.80;;;0.80;;
6551;SDS011;3309;48.708;9.290;2022-12-08T16:27:10;0.87;;;0.87;;
6551;SDS011;3309;48.708;9.290;2022-12-08T16:29:38;0.83;;;0.83;;
6551;SDS011;3309;48.708;9.290;2022-12-08T16:32:10;0.80;;;0.80;;
6551;SDS011;3309;48.708;9.290;2022-12-08T16:34:36;0.70;;;0.70;;
6551;SDS011;3309;48.708;9.290;2022-12-08T16:37:02;0.80;;;0.80;;
6551;SDS011;3309;48.708;9.290;2022-12-08T16:39:28;0.80;;;0.80;;
6551;SDS011;3309;48.708;9.290;2022-12-08T16:41:54;0.80;;;0.80;;
6551;SDS011;3309;48.708;9.290;2022-12-08T16:44:39;0.80;;;0.80;;
6551;SDS011;3309;48.708;9.290;2022-12-08T16:47:08;0.90;;;0.90;;
6551;SDS011;3309;48.708;9.290;2022-12-08T16:49:38;0.80;;;0.80;;
6551;SDS011;3309;48.708;9.290;2022-12-08T16:52:04;0.80;;;0.80;;
6551;SDS011;3309;48.708;9.290;2022-12-08T16:54:31;0.80;;;0.80;;
6551;SDS011;3309;48.708;9.290;2022-12-08T16:56:57;0.90;;;0.90;;
6551;SDS011;3309;48.708;9.290;2022-12-08T16:59:24;0.80;;;0.80;;
6551;SDS011;3309;48.708;9.290;2022-12-08T17:01:50;0.80;;;0.80;;
6551;SDS011;3309;48.708;9.290;2022-12-08T17:04:16;0.80;;;0.80;;